OKBO2: North Canadian River at Britton Rd at OKC, OK

                                SHEF ID:       OKBO2     North Canadian River at Britton
STATION TYPE:

STAGE RIV-FLOW WTR-TEMP DIS-OXY CONDUCT BAT-LOAD
ft cfs F mg/l umho/cm volt
Ccp-Rev Ccp-Rev Ccp-Rev Ccp-Rev Ccp-Rev Ccp-Rev
(America/Chicago)
02/24 00:00 5.27 105 51.33 10.15 1408 12.07
02/24 01:00 5.26 104 50.61 9.92 1407 12.06
02/24 02:00 5.26 104 49.69 9.76 1407 12.05
02/24 03:00 5.27 105 48.67 9.71 1409 12.04
02/24 04:00 5.27 105 47.61 9.69 1413 12.01
02/24 05:00 5.28 107 46.56 9.74 1420 12.00
02/24 06:00 5.29 109 45.64 9.83 1428 11.97
02/24 07:00 5.30 110 44.94 9.89 1435 11.94
02/24 08:00 5.31 112 44.35 10.19 1437 11.94
02/24 09:00 5.29 109 44.19 10.95 1449 12.84
02/24 10:00 5.29 109 44.80 11.62 1454 13.53
02/24 11:00 5.31 112 46.18 12.12 1457 13.33
02/24 12:00 5.33 115 48.00 12.47 1462 13.31
02/24 13:00 5.32 114 49.96 12.74 1460 13.24
02/24 14:00 5.34 117 51.80 12.86 1452 13.16
02/24 15:00 5.33 115 53.31 12.72 1469 13.06
02/24 16:00 5.29 109 54.27 13.07 1469 12.99
02/24 17:00 5.34 117 54.61 12.85 1449 12.94
02/24 18:00 5.34 117 54.66 12.78 1475 12.92
02/24 19:00 5.33 115 54.57 11.99 1478 12.63
02/24 20:00 5.31 112 54.55 11.26 1473 12.40
02/24 21:00 5.30 110 54.54 10.54 1467 12.24
02/24 22:00 5.28 107 54.50 9.90 1470 12.14
02/24 23:00 5.28 107 54.39 9.33 1466 12.08
Data processed at Wed 25Feb2026 05:25 GMT

NOTICE: If you are parsing this page

Please convert to using our Data API. Starting early 2026 we will be migrating to: https://water.usace.army.mil with modern pages rendered in JavaScript. When this migration completes you will no longer be able to scrape this page! CWMSDataAPI (CDA)

Timeseries IDs (TSIDs)

TSIDs used from left to right in the data table
OKC3.Stage.Inst.1Hour.0.Ccp-Rev
OKC3.Flow.Inst.1Hour.0.Ccp-Rev
OKC3.Temp-Water.Inst.1Hour.0.Ccp-Rev
OKC3.Conc-DO.Inst.1Hour.0.Ccp-Rev
OKC3.Cond-Water.Inst.1Hour.0.Ccp-Rev
OKC3.Volt-Battery Load.Inst.1Hour.0.Ccp-Rev

                            

All information presented herein is the property of the government of the United States of America and may be revised or deleted at any time without prior notice. Dissemination of this information without the expressed written consent of the Public Affairs Office, Tulsa District U.S. Army Corps of Engineers is strictly prohibited. These data are gathered electronically and, as presented, have NOT undergone any form of quality control. These data are NOT guaranteed to be valid or correct.